Time;durP1;ratioP1;P1;durP2;ratioP2;P2;SDS_P1;SDS_P2;PMS_P1;PMS_P2;Temp;Humidity;BMP_temperature;BMP_pressure;BME280_temperature;BME280_humidity;BME280_pressure;Samples;Min_cycle;Max_cycle;Signal;HPM_P1;HPM_P2
2022/11/10 00:01:35;;;;;;;13.82;6.05;;;;;;;;;;5046690;28;20494;-84
2022/11/10 00:04:00;;;;;;;14.80;5.75;;;;;;;;;;5046078;28;20037;-84
2022/11/10 00:06:26;;;;;;;9.02;5.43;;;;;;;;;;5051135;28;20029;-84
2022/11/10 00:08:52;;;;;;;10.63;5.90;;;;;;;;;;5048025;28;20025;-83
2022/11/10 00:11:18;;;;;;;10.27;5.45;;;;;;;;;;5041435;28;20053;-85
2022/11/10 00:19:29;;;;;;;14.48;6.03;;;;;;;;;;5057469;28;20021;-83
2022/11/10 00:22:14;;;;;;;13.93;5.90;;;9.50;99.90;;;;;;5041256;28;20037;-83
2022/11/10 00:24:43;;;;;;;13.02;6.82;;;;;;;;;;5055092;28;20026;-86
2022/11/10 00:27:26;;;;;;;13.23;6.80;;;;;;;;;;5056308;28;20021;-84
2022/11/10 00:30:19;;;;;;;20.05;6.75;;;;;;;;;;5041890;28;20096;-83
2022/11/10 00:32:49;;;;;;;19.55;7.65;;;;;;;;;;5058640;28;20017;-83
2022/11/10 00:35:17;;;;;;;18.97;7.40;;;;;;;;;;5046209;28;20016;-84
2022/11/10 00:37:46;;;;;;;19.65;7.82;;;;;;;;;;5060084;28;20336;-84
2022/11/10 00:40:12;;;;;;;14.35;7.82;;;;;;;;;;5058190;28;20022;-83
2022/11/10 00:42:38;;;;;;;29.98;8.55;;;;;;;;;;5044889;28;20022;-83
2022/11/10 00:45:06;;;;;;;34.72;8.52;;;;;;;;;;5031761;28;20010;-86
2022/11/10 00:47:33;;;;;;;27.42;8.82;;;;;;;;;;5059705;28;20073;-85
2022/11/10 00:49:59;;;;;;;34.08;8.70;;;;;;;;;;5052062;28;20010;-84
2022/11/10 00:52:27;;;;;;;41.45;8.70;;;;;;;;;;5059649;28;20049;-84
2022/11/10 00:54:55;;;;;;;28.33;8.90;;;;;;;;;;5042523;28;20656;-84
2022/11/10 00:57:39;;;;;;;32.50;9.02;;;9.20;99.90;;;;;;5060582;28;20048;-84
2022/11/10 01:00:13;;;;;;;59.20;9.68;;;;;;;;;;5036073;28;20073;-87
2022/11/10 01:02:39;;;;;;;43.22;8.43;;;;;;;;;;5043434;28;20032;-86
2022/11/10 01:05:06;;;;;;;23.88;9.25;;;;;;;;;;5042651;28;20081;-87
2022/11/10 01:07:32;;;;;;;16.48;8.63;;;;;;;;;;5065328;28;20054;-88
2022/11/10 01:09:58;;;;;;;21.38;8.18;;;;;;;;;;5041935;28;20022;-84
2022/11/10 01:12:24;;;;;;;19.13;8.05;;;;;;;;;;5067763;28;20102;-83
2022/11/10 01:14:50;;;;;;;20.23;8.93;;;;;;;;;;5058518;28;20073;-84
2022/11/10 01:17:16;;;;;;;16.15;7.70;;;;;;;;;;5059338;28;20022;-83
2022/11/10 01:19:45;;;;;;;14.80;8.05;;;;;;;;;;5058964;28;20033;-83
2022/11/10 01:22:16;;;;;;;14.25;7.60;;;;;;;;;;5059452;28;20014;-84
2022/11/10 01:24:42;;;;;;;15.02;7.63;;;;;;;;;;5056812;28;20020;-83
2022/11/10 01:27:09;;;;;;;12.23;7.07;;;;;;;;;;5048811;28;20097;-86
2022/11/10 01:29:35;;;;;;;11.65;6.75;;;;;;;;;;5048932;28;20009;-83
2022/11/10 01:32:01;;;;;;;15.48;7.55;;;;;;;;;;5040704;28;20065;-86
2022/11/10 01:34:27;;;;;;;15.27;7.28;;;;;;;;;;5041492;28;20021;-83
2022/11/10 01:36:54;;;;;;;16.23;7.50;;;;;;;;;;5040439;28;20025;-84
2022/11/10 01:39:20;;;;;;;14.45;7.15;;;;;;;;;;5041382;28;20029;-84
2022/11/10 01:41:46;;;;;;;13.45;6.18;;;;;;;;;;5041840;28;20006;-86
2022/11/10 01:44:32;;;;;;;13.60;6.53;;;;;;;;;;5042265;28;20017;-84
2022/11/10 01:46:58;;;;;;;12.25;6.05;;;;;;;;;;5040483;28;20010;-84
2022/11/10 01:52:29;;;;;;;12.30;5.63;;;;;;;;;;5065330;28;20024;-85
2022/11/10 01:54:55;;;;;;;12.15;6.28;;;;;;;;;;5058767;28;20014;-88
2022/11/10 01:57:21;;;;;;;12.18;6.15;;;;;;;;;;5055002;28;20030;-84
2022/11/10 01:59:59;;;;;;;14.90;6.32;;;9.70;99.90;;;;;;5050759;23;20053;-87
2022/11/10 02:02:40;;;;;;;10.90;5.47;;;9.70;99.90;;;;;;5039711;28;20393;-89
2022/11/10 02:05:10;;;;;;;9.32;5.20;;;9.70;99.90;;;;;;5053437;28;20021;-85
2022/11/10 02:07:46;;;;;;;15.55;6.38;;;9.70;99.90;;;;;;5053976;28;20029;-84
2022/11/10 02:10:17;;;;;;;14.68;5.97;;;9.70;99.90;;;;;;5039112;28;20029;-86
2022/11/10 02:12:49;;;;;;;13.40;6.07;;;9.70;99.90;;;;;;5034021;28;20048;-88
2022/11/10 02:15:22;;;;;;;10.80;6.55;;;9.80;99.90;;;;;;5019462;28;20050;-86
2022/11/10 02:17:52;;;;;;;13.95;6.68;;;9.70;99.90;;;;;;5033633;28;20025;-88
2022/11/10 02:20:22;;;;;;;12.48;6.13;;;;;;;;;;5033798;28;20149;-88
2022/11/10 02:22:48;;;;;;;13.18;6.25;;;;;;;;;;5032805;28;20029;-87
2022/11/10 02:25:18;;;;;;;14.07;6.25;;;9.70;99.90;;;;;;5019280;28;20022;-88
2022/11/10 02:27:44;;;;;;;9.52;5.65;;;;;;;;;;5013387;28;20479;-85
2022/11/10 02:30:10;;;;;;;10.20;6.07;;;;;;;;;;5020497;28;20040;-87
2022/11/10 02:32:36;;;;;;;15.50;6.07;;;;;;;;;;5034712;28;20025;-87
2022/11/10 02:35:03;;;;;;;11.07;5.78;;;;;;;;;;5042983;28;20425;-86
2022/11/10 02:37:29;;;;;;;13.73;6.22;;;;;;;;;;5013359;28;20026;-91
2022/11/10 02:39:55;;;;;;;11.55;6.50;;;;;;;;;;5024011;28;20021;-87
2022/11/10 02:42:21;;;;;;;15.52;6.22;;;;;;;;;;5047680;28;20401;-86
2022/11/10 02:44:47;;;;;;;15.23;6.68;;;;;;;;;;5039096;28;20036;-89
2022/11/10 02:47:12;;;;;;;11.88;6.53;;;9.90;99.90;;;;;;5033287;28;20377;-88
2022/11/10 02:49:38;;;;;;;18.65;7.38;;;;;;;;;;5031983;28;20026;-85
2022/11/10 02:52:04;;;;;;;14.50;6.93;;;;;;;;;;5032587;28;20152;-86
2022/11/10 02:54:30;;;;;;;17.42;6.88;;;;;;;;;;5032087;28;20033;-88
2022/11/10 02:56:56;;;;;;;15.02;7.05;;;;;;;;;;5032450;28;20022;-86
2022/11/10 02:59:22;;;;;;;18.48;7.47;;;;;;;;;;5031874;28;20040;-85
2022/11/10 03:01:48;;;;;;;14.45;7.97;;;;;;;;;;5031724;28;20029;-87
2022/11/10 03:04:14;;;;;;;16.90;8.43;;;;;;;;;;5029136;28;20363;-87
2022/11/10 03:06:40;;;;;;;20.05;8.40;;;;;;;;;;5031817;28;20068;-86
2022/11/10 03:09:08;;;;;;;16.73;7.70;;;;;;;;;;5031560;28;20099;-88
2022/11/10 03:11:33;;;;;;;15.82;7.93;;;;;;;;;;5031590;28;20026;-87
2022/11/10 03:13:59;;;;;;;16.90;7.85;;;;;;;;;;5031845;28;20025;-86
2022/11/10 03:16:25;;;;;;;14.75;8.35;;;;;;;;;;5032578;28;20037;-87
2022/11/10 03:18:51;;;;;;;16.83;7.95;;;;;;;;;;5031124;28;20421;-86
2022/11/10 03:21:17;;;;;;;19.95;8.27;;;;;;;;;;5031353;28;20103;-87
2022/11/10 03:23:43;;;;;;;16.75;7.63;;;;;;;;;;5032041;28;20498;-90
2022/11/10 03:26:09;;;;;;;16.20;8.20;;;;;;;;;;5032023;28;20248;-89
2022/11/10 03:28:35;;;;;;;17.73;7.95;;;;;;;;;;5037820;28;20459;-89
2022/11/10 03:31:01;;;;;;;18.55;7.88;;;10.00;99.90;;;;;;5037946;28;20029;-89
2022/11/10 03:33:27;;;;;;;14.98;7.93;;;;;;;;;;5037429;28;20037;-88
2022/11/10 03:35:52;;;;;;;15.75;7.70;;;10.00;99.90;;;;;;5039511;28;20021;-89
2022/11/10 03:38:19;;;;;;;19.33;7.88;;;;;;;;;;5039848;28;20029;-88
2022/11/10 03:40:45;;;;;;;14.82;7.78;;;;;;;;;;5042849;28;20532;-90
2022/11/10 03:43:11;;;;;;;16.40;8.05;;;;;;;;;;5038032;28;20029;-84
2022/11/10 03:45:36;;;;;;;18.48;8.60;;;10.00;99.90;;;;;;5019456;28;20098;-85
2022/11/10 03:48:03;;;;;;;13.95;7.50;;;;;;;;;;5018824;28;20030;-86
2022/11/10 03:50:29;;;;;;;16.13;8.10;;;;;;;;;;5019351;28;20018;-82
2022/11/10 03:52:54;;;;;;;16.25;7.10;;;10.00;99.90;;;;;;5020615;28;20033;-85
2022/11/10 03:55:20;;;;;;;15.15;7.10;;;;;;;;;;5020894;28;20029;-86
2022/11/10 03:57:46;;;;;;;14.52;7.63;;;10.00;99.90;;;;;;5019724;28;20318;-84
2022/11/10 04:00:12;;;;;;;15.77;6.85;;;;;;;;;;5020438;28;20037;-86
2022/11/10 04:02:38;;;;;;;15.00;7.30;;;10.00;99.90;;;;;;5020109;28;20080;-88
2022/11/10 04:10:45;;;;;;;15.02;7.35;;;9.90;99.90;;;;;;5041543;28;20035;-88
2022/11/10 04:15:55;;;;;;;14.70;6.88;;;11.50;99.90;;;;;;5043909;28;20075;-89
2022/11/10 04:18:23;;;;;;;13.48;7.18;;;10.00;99.90;;;;;;5058852;28;20327;-86
2022/11/10 04:20:53;;;;;;;12.63;6.45;;;10.00;99.90;;;;;;5058303;28;20086;-88
2022/11/10 04:23:27;;;;;;;15.35;7.03;;;10.00;99.90;;;;;;5060138;28;20028;-89
2022/11/10 04:28:37;;;;;;;14.40;8.10;;;9.90;99.90;;;;;;5056400;28;20028;-89
2022/11/10 04:31:03;;;;;;;14.00;7.25;;;;;;;;;;5039042;28;20034;-83
2022/11/10 04:33:28;;;;;;;14.52;6.53;;;9.90;99.90;;;;;;5038844;28;20036;-87
2022/11/10 04:35:54;;;;;;;13.85;6.85;;;9.90;99.90;;;;;;5038267;28;20052;-86
2022/11/10 04:38:20;;;;;;;13.30;7.10;;;;;;;;;;5036521;28;20022;-88
2022/11/10 04:40:46;;;;;;;14.00;6.65;;;;;;;;;;5035941;28;20472;-85
2022/11/10 04:43:12;;;;;;;11.65;7.10;;;;;;;;;;5038328;28;20030;-84
2022/11/10 04:45:38;;;;;;;13.63;6.57;;;;;;;;;;5040752;28;20041;-87
2022/11/10 04:48:04;;;;;;;15.40;7.10;;;;;;;;;;5037241;28;20033;-89
2022/11/10 04:50:30;;;;;;;15.35;7.45;;;;;;;;;;5037618;28;20025;-88
2022/11/10 04:52:56;;;;;;;13.57;6.70;;;;;;;;;;5037098;28;20132;-88
2022/11/10 04:55:22;;;;;;;15.77;6.63;;;;;;;;;;5037471;28;20049;-87
2022/11/10 04:57:48;;;;;;;16.80;6.93;;;;;;;;;;5040088;28;20121;-87
2022/11/10 05:00:14;;;;;;;13.50;6.55;;;;;;;;;;5039031;28;20162;-84
2022/11/10 05:02:40;;;;;;;12.95;6.72;;;;;;;;;;5036204;28;20488;-85
2022/11/10 05:05:06;;;;;;;11.48;6.55;;;;;;;;;;5037770;28;20026;-87
2022/11/10 05:07:32;;;;;;;15.65;6.75;;;;;;;;;;5038425;28;20501;-88
2022/11/10 05:09:59;;;;;;;12.27;6.72;;;;;;;;;;5038067;28;20025;-86
2022/11/10 05:12:25;;;;;;;13.50;6.97;;;;;;;;;;5038909;28;20446;-87
2022/11/10 05:14:51;;;;;;;15.40;7.38;;;;;;;;;;5037019;28;20051;-86
2022/11/10 05:17:19;;;;;;;16.27;7.35;;;;;;;;;;5036401;28;20029;-87
2022/11/10 05:19:46;;;;;;;13.40;6.78;;;;;;;;;;5036635;28;20021;-88
2022/11/10 05:22:19;;;;;;;17.83;7.00;;;;;;;;;;5037344;28;20083;-85
2022/11/10 05:24:45;;;;;;;15.98;7.45;;;;;;;;;;5036435;28;20033;-86
2022/11/10 05:27:11;;;;;;;13.65;7.57;;;;;;;;;;5036278;28;20029;-83
2022/11/10 05:29:37;;;;;;;16.02;7.88;;;;;;;;;;5037215;28;20496;-86
2022/11/10 05:32:03;;;;;;;17.27;8.35;;;;;;;;;;5038252;28;20044;-89
2022/11/10 05:34:29;;;;;;;19.13;8.88;;;;;;;;;;5039328;28;20121;-86
2022/11/10 05:36:58;;;;;;;18.85;9.23;;;;;;;;;;5044681;28;20033;-86
2022/11/10 05:39:27;;;;;;;21.38;8.75;;;;;;;;;;5040177;28;20026;-88
2022/11/10 05:41:53;;;;;;;15.55;8.55;;;;;;;;;;5039751;28;20030;-87
2022/11/10 05:44:32;;;;;;;;;;;;;;;;;;;;;
2022/11/10 05:46:58;;;;;;;16.58;8.60;;;;;;;;;;5041335;28;20060;-88
2022/11/10 05:49:27;;;;;;;18.83;9.35;;;;;;;;;;5048060;28;20029;-87
2022/11/10 05:51:55;;;;;;;20.75;9.07;;;;;;;;;;5040269;28;20029;-87
2022/11/10 05:54:21;;;;;;;17.48;8.75;;;;;;;;;;5043494;28;20026;-88
2022/11/10 05:56:47;;;;;;;16.92;9.00;;;;;;;;;;5037148;28;20025;-86
2022/11/10 05:59:13;;;;;;;15.35;8.02;;;;;;;;;;5042291;28;20021;-88
2022/11/10 06:01:39;;;;;;;20.35;7.93;;;;;;;;;;5037180;28;20060;-85
2022/11/10 06:04:05;;;;;;;15.52;8.55;;;;;;;;;;5035127;28;20036;-87
2022/11/10 06:06:31;;;;;;;17.02;9.30;;;9.70;99.90;;;;;;5030925;28;20017;-86
2022/11/10 06:08:58;;;;;;;17.67;9.00;;;;;;;;;;5031182;28;20335;-87
2022/11/10 06:11:23;;;;;;;17.30;8.45;;;9.60;99.90;;;;;;5035293;28;20390;-85
2022/11/10 06:13:49;;;;;;;21.98;9.25;;;;;;;;;;5026418;28;20024;-89
2022/11/10 06:16:15;;;;;;;20.73;9.75;;;;;;;;;;5030302;28;20105;-89
2022/11/10 06:18:41;;;;;;;18.73;9.65;;;;;;;;;;5034491;28;20029;-88
2022/11/10 06:21:07;;;;;;;19.27;9.13;;;;;;;;;;5032535;28;20087;-87
2022/11/10 06:23:33;;;;;;;18.77;9.15;;;;;;;;;;5031614;28;20053;-87
2022/11/10 06:25:59;;;;;;;19.55;9.45;;;;;;;;;;5033536;28;20029;-88
2022/11/10 06:28:25;;;;;;;19.33;9.77;;;9.40;99.90;;;;;;5037467;28;20029;-86
2022/11/10 06:30:51;;;;;;;19.92;9.40;;;;;;;;;;5036515;28;20052;-88
2022/11/10 06:33:17;;;;;;;19.08;9.32;;;;;;;;;;5034389;28;20493;-87
2022/11/10 06:35:44;;;;;;;23.55;9.82;;;9.60;99.90;;;;;;5019061;28;20029;-86
2022/11/10 06:38:11;;;;;;;19.80;10.02;;;;;;;;;;5032237;28;20415;-87
2022/11/10 06:40:37;;;;;;;19.33;9.48;;;;;;;;;;5029888;28;20036;-85
2022/11/10 06:43:03;;;;;;;25.50;9.63;;;9.60;99.90;;;;;;5040786;28;20021;-86
2022/11/10 06:45:29;;;;;;;18.75;9.55;;;;;;;;;;5027327;28;20029;-87
2022/11/10 06:48:10;;;;;;;18.75;9.48;;;9.60;99.90;;;;;;5024937;28;20044;-87
2022/11/10 06:50:35;;;;;;;22.80;9.85;;;9.60;99.90;;;;;;5034704;28;20551;-88
2022/11/10 06:53:02;;;;;;;20.65;9.48;;;;;;;;;;5033157;28;20025;-88
2022/11/10 06:55:28;;;;;;;19.42;9.32;;;9.60;99.90;;;;;;5036881;28;20033;-87
2022/11/10 06:57:54;;;;;;;21.52;10.40;;;9.50;99.90;;;;;;5033698;28;20028;-86
2022/11/10 07:00:21;;;;;;;21.63;9.07;;;;;;;;;;5031766;28;20025;-88
2022/11/10 07:02:47;;;;;;;18.85;9.27;;;;;;;;;;5037269;28;20025;-89
2022/11/10 07:05:14;;;;;;;20.42;9.50;;;9.50;99.90;;;;;;5025404;28;20037;-88
2022/11/10 07:07:40;;;;;;;23.08;9.38;;;;;;;;;;5037404;28;20387;-87
2022/11/10 07:10:07;;;;;;;19.52;8.82;;;;;;;;;;5049418;28;20021;-87
2022/11/10 07:12:33;;;;;;;19.35;9.88;;;;;;;;;;5036028;28;20033;-85
2022/11/10 07:14:59;;;;;;;21.73;9.80;;;;;;;;;;5033947;28;20435;-87
2022/11/10 07:17:25;;;;;;;18.10;9.00;;;;;;;;;;5033285;28;20029;-85
2022/11/10 07:19:51;;;;;;;25.58;10.07;;;;;;;;;;5036913;28;20393;-87
2022/11/10 07:22:17;;;;;;;22.23;9.60;;;;;;;;;;5023483;28;20024;-89
2022/11/10 07:24:43;;;;;;;21.27;9.18;;;;;;;;;;5041869;28;20087;-89
2022/11/10 07:27:09;;;;;;;21.80;10.07;;;;;;;;;;5037814;28;20033;-87
2022/11/10 07:29:35;;;;;;;23.52;9.88;;;;;;;;;;5027852;28;20059;-86
2022/11/10 07:32:02;;;;;;;25.48;10.48;;;;;;;;;;5036243;28;20022;-87
2022/11/10 07:34:28;;;;;;;22.92;9.80;;;;;;;;;;5038024;28;20516;-88
2022/11/10 07:36:58;;;;;;;19.15;9.05;;;;;;;;;;5040930;28;20498;-89
2022/11/10 07:39:24;;;;;;;21.98;9.80;;;;;;;;;;5036969;28;20079;-86
2022/11/10 07:41:50;;;;;;;19.85;9.48;;;;;;;;;;5040247;28;20485;-86
2022/11/10 07:44:16;;;;;;;19.50;9.20;;;;;;;;;;5047147;28;20018;-86
2022/11/10 07:46:42;;;;;;;17.48;9.00;;;;;;;;;;5048382;28;20025;-88
2022/11/10 07:49:08;;;;;;;18.70;9.73;;;;;;;;;;5045559;28;20037;-88
2022/11/10 07:51:34;;;;;;;23.08;9.63;;;;;;;;;;5042451;28;20025;-87
2022/11/10 07:54:00;;;;;;;21.02;9.40;;;;;;;;;;5041850;28;20501;-88
2022/11/10 07:56:26;;;;;;;18.10;9.95;;;;;;;;;;5043908;28;20037;-87
2022/11/10 07:58:52;;;;;;;25.20;10.35;;;;;;;;;;5034501;28;20040;-86
2022/11/10 08:01:18;;;;;;;18.50;10.00;;;;;;;;;;5023888;28;20046;-87
2022/11/10 08:03:44;;;;;;;15.00;8.57;;;;;;;;;;5024099;28;20128;-87
2022/11/10 08:06:10;;;;;;;16.13;7.97;;;9.90;99.90;;;;;;5038336;28;20063;-87
2022/11/10 08:08:36;;;;;;;17.92;8.35;;;;;;;;;;5064232;28;20029;-86
2022/11/10 08:11:02;;;;;;;16.73;7.57;;;;;;;;;;5058583;28;20037;-84
2022/11/10 08:13:28;;;;;;;14.68;8.20;;;;;;;;;;5039594;28;20911;-85
2022/11/10 08:15:56;;;;;;;19.02;7.85;;;;;;;;;;5047625;28;20048;-86
2022/11/10 08:18:22;;;;;;;13.00;7.95;;;9.90;99.90;;;;;;5048860;28;20029;-87
2022/11/10 08:20:48;;;;;;;21.90;10.35;;;;;;;;;;5047899;28;20030;-85
2022/11/10 08:23:18;;;;;;;13.45;7.35;;;10.00;99.90;;;;;;5050277;28;20071;-86
2022/11/10 08:25:45;;;;;;;15.32;7.43;;;9.90;99.90;;;;;;5048325;28;20338;-86
2022/11/10 08:28:16;;;;;;;13.00;6.60;;;9.90;99.90;;;;;;5039221;28;20057;-87
2022/11/10 08:30:44;;;;;;;15.10;7.53;;;9.20;99.90;;;;;;5044429;28;20022;-87
2022/11/10 08:33:12;;;;;;;16.50;7.65;;;10.00;99.90;;;;;;5067366;28;20029;-86
2022/11/10 08:35:40;;;;;;;19.13;7.90;;;10.00;99.90;;;;;;5054964;28;20026;-87
2022/11/10 08:38:15;;;;;;;16.90;8.20;;;10.10;99.90;;;;;;5047225;28;20025;-85
2022/11/10 08:40:41;;;;;;;18.00;8.85;;;;;;;;;;5047048;28;20056;-87
2022/11/10 08:43:08;;;;;;;13.48;6.70;;;10.00;99.90;;;;;;5050373;28;20037;-88
2022/11/10 08:45:39;;;;;;;15.30;7.20;;;10.00;99.90;;;;;;5053471;28;20041;-87
2022/11/10 08:48:11;;;;;;;12.23;7.35;;;9.90;99.90;;;;;;5050816;28;20032;-85
2022/11/10 08:50:37;;;;;;;14.13;7.45;;;9.90;99.90;;;;;;5051545;28;20067;-87
2022/11/10 08:53:09;;;;;;;14.20;7.25;;;9.80;99.90;;;;;;5048976;28;20064;-86
2022/11/10 08:55:35;;;;;;;12.38;6.82;;;;;;;;;;5049068;28;20033;-89
2022/11/10 08:58:02;;;;;;;12.50;6.68;;;;;;;;;;5049598;28;20037;-87
2022/11/10 09:03:12;;;;;;;15.38;7.03;;;;;;;;;;5227394;22;20033;-82
2022/11/10 10:40:53;;;;;;;11.45;5.53;;;;;;;;;;5010488;28;20577;-80
2022/11/10 10:44:05;;;;;;;9.15;4.72;;;;;;;;;;5005240;28;20096;-81
2022/11/10 10:47:38;;;;;;;6.93;3.83;;;10.10;99.90;;;;;;4985909;28;20042;-81
2022/11/10 10:50:23;;;;;;;9.77;4.97;;;;;;;;;;4978493;28;20058;-81
2022/11/10 10:53:53;;;;;;;8.60;4.15;;;10.20;99.90;;;;;;4985386;28;20042;-81
2022/11/10 10:56:38;;;;;;;13.98;4.93;;;;;;;;;;4983398;28;20045;-81
2022/11/10 11:00:03;;;;;;;11.48;5.60;;;10.20;99.90;;;;;;4971944;28;20483;-81
2022/11/10 11:03:33;;;;;;;11.90;5.57;;;10.30;99.90;;;;;;4980140;28;20027;-81
2022/11/10 11:06:09;;;;;;;7.97;4.15;;;;;;;;;;5004022;28;20045;-80
2022/11/10 11:08:43;;;;;;;12.13;5.10;;;;;;;;;;4986924;28;20398;-80
2022/11/10 11:11:14;;;;;;;12.35;5.32;;;;;;;;;;4990442;28;20034;-79
2022/11/10 11:13:47;;;;;;;8.65;4.70;;;;;;;;;;4991932;28;20037;-81
2022/11/10 11:16:16;;;;;;;12.77;5.30;;;;;;;;;;4996115;28;20034;-82
2022/11/10 11:18:54;;;;;;;7.68;4.72;;;;;;;;;;4998940;28;20023;-81
2022/11/10 11:47:35;;;;;;;10.30;4.80;;;;;;;;;;4908147;29;20043;-80
2022/11/10 12:05:13;;;;;;;10.63;5.13;;;10.70;99.90;;;;;;4878653;29;20065;-80
2022/11/10 12:07:52;;;;;;;25.48;12.32;;;10.70;99.90;;;;;;4873147;29;20150;-79
2022/11/10 12:10:41;;;;;;;11.18;5.10;;;10.80;99.90;;;;;;4955309;28;20026;-82
2022/11/10 12:13:11;;;;;;;12.35;5.80;;;;;;;;;;5008806;28;20053;-81
2022/11/10 12:15:55;;;;;;;10.60;4.95;;;;;;;;;;5002178;28;20010;-81
2022/11/10 12:18:35;;;;;;;15.52;5.70;;;10.90;99.90;;;;;;5019829;28;20003;-81
2022/11/10 12:21:13;;;;;;;12.40;5.03;;;;;;;;;;4999514;28;20014;-81
2022/11/10 12:24:08;;;;;;;12.82;5.90;;;10.80;99.90;;;;;;4999935;28;20022;-80
2022/11/10 12:26:55;;;;;;;13.05;5.72;;;10.90;99.90;;;;;;4983282;28;20127;-82
2022/11/10 12:29:21;;;;;;;13.85;5.50;;;;;;;;;;4999552;28;20026;-81
2022/11/10 12:31:53;;;;;;;11.32;5.47;;;11.00;99.90;;;;;;5005553;28;20023;-80
2022/11/10 12:34:55;;;;;;;15.93;6.03;;;11.00;99.90;;;;;;5009168;28;20021;-80
2022/11/10 12:37:24;;;;;;;12.27;5.65;;;;;;;;;;4987366;28;20015;-79
2022/11/10 12:40:13;;;;;;;9.98;5.40;;;11.00;99.90;;;;;;5003831;28;20032;-81
2022/11/10 12:42:42;;;;;;;11.00;5.50;;;;;;;;;;4995558;28;20362;-81
2022/11/10 12:45:17;;;;;;;11.05;5.68;;;11.10;99.90;;;;;;5007669;28;20093;-79
2022/11/10 12:47:45;;;;;;;11.32;5.15;;;11.20;99.90;;;;;;5015531;28;20019;-82
2022/11/10 12:50:20;;;;;;;17.35;6.53;;;;;;;;;;5007569;28;20029;-81
2022/11/10 12:53:10;;;;;;;12.00;5.45;;;11.20;99.90;;;;;;5016307;28;20026;-80
2022/11/10 12:55:41;;;;;;;14.65;5.75;;;11.10;99.90;;;;;;5005600;28;20014;-81
2022/11/10 12:58:11;;;;;;;12.98;5.78;;;;;;;;;;5013852;28;20011;-80
2022/11/10 13:00:43;;;;;;;13.05;6.05;;;11.10;99.90;;;;;;5010165;28;20071;-80
2022/11/10 13:03:27;;;;;;;13.73;5.55;;;11.10;99.90;;;;;;5015101;28;20018;-81
2022/11/10 13:05:56;;;;;;;15.07;5.55;;;11.20;99.90;;;;;;5017943;28;20074;-80
2022/11/10 13:08:23;;;;;;;15.90;5.50;;;;;;;;;;5011120;28;20129;-81
2022/11/10 13:11:11;;;;;;;11.68;6.03;;;11.30;99.90;;;;;;5003390;28;20025;-79
2022/11/10 13:13:44;;;;;;;14.93;5.70;;;11.30;99.90;;;;;;5013642;28;20029;-79
2022/11/10 13:16:10;;;;;;;15.10;6.45;;;;;;;;;;5009043;28;20506;-80
2022/11/10 13:18:36;;;;;;;13.88;5.85;;;11.40;99.90;;;;;;4994001;28;20023;-80
2022/11/10 13:21:02;;;;;;;10.68;5.30;;;;;;;;;;4997979;28;20038;-79
2022/11/10 13:23:54;;;;;;;12.75;6.03;;;11.30;99.90;;;;;;5000760;28;20022;-80
2022/11/10 13:26:43;;;;;;;13.63;6.38;;;11.30;99.90;;;;;;4998287;28;20058;-79
2022/11/10 13:29:19;;;;;;;13.25;5.65;;;11.30;99.90;;;;;;5009904;28;20057;-79
2022/11/10 13:31:53;;;;;;;14.02;6.38;;;11.30;99.90;;;;;;4994307;28;20018;-79
2022/11/10 13:34:30;;;;;;;15.05;6.47;;;;;;;;;;5011362;28;20105;-78
2022/11/10 13:36:57;;;;;;;14.40;5.82;;;;;;;;;;5007434;28;20015;-79
2022/11/10 13:39:32;;;;;;;16.27;7.97;;;11.20;99.90;;;;;;5015175;28;20026;-80
2022/11/10 13:42:08;;;;;;;13.60;5.30;;;11.30;99.90;;;;;;5002006;28;20053;-81
2022/11/10 13:44:42;;;;;;;10.43;5.50;;;;;;;;;;5014920;28;20042;-81
2022/11/10 13:47:08;;;;;;;14.02;5.07;;;;;;;;;;5009062;28;20033;-81
2022/11/10 13:49:53;;;;;;;10.88;4.65;;;;;;;;;;5016689;28;20049;-80
2022/11/10 13:52:45;;;;;;;12.15;4.90;;;11.30;99.90;;;;;;4992326;28;20073;-81
2022/11/10 13:55:27;;;;;;;14.23;5.07;;;11.30;99.90;;;;;;5010998;28;20022;-79
2022/11/10 13:58:15;;;;;;;13.30;5.57;;;11.30;99.90;;;;;;4999170;28;20049;-81
2022/11/10 14:00:48;;;;;;;14.38;5.13;;;11.30;99.90;;;;;;4993913;28;20010;-82
2022/11/10 14:03:45;;;;;;;16.05;5.00;;;11.20;99.90;;;;;;4996449;28;20028;-80
2022/11/10 14:06:14;;;;;;;16.05;5.97;;;;;;;;;;5010988;28;20044;-81
2022/11/10 14:08:46;;;;;;;17.23;6.55;;;11.30;99.90;;;;;;5011215;28;20034;-80
2022/11/10 14:11:29;;;;;;;11.25;5.47;;;11.30;99.90;;;;;;5004280;28;20006;-82
2022/11/10 14:14:09;;;;;;;16.83;6.03;;;11.20;99.90;;;;;;5014184;28;20026;-82
2022/11/10 14:16:40;;;;;;;13.80;4.95;;;11.30;99.90;;;;;;5006811;28;20042;-82
2022/11/10 14:19:25;;;;;;;10.75;5.00;;;;;;;;;;4989726;28;20133;-79
2022/11/10 14:22:05;;;;;;;12.93;5.05;;;11.30;99.90;;;;;;5007434;28;20038;-80
2022/11/10 14:24:41;;;;;;;12.57;5.45;;;11.30;99.90;;;;;;4999123;28;20035;-79
2022/11/10 14:27:14;;;;;;;13.27;5.10;;;11.30;99.90;;;;;;5011510;28;20073;-79
2022/11/10 14:29:41;;;;;;;10.32;5.13;;;;;;;;;;4993752;28;20026;-80
2022/11/10 14:32:26;;;;;;;10.63;4.75;;;11.30;99.90;;;;;;4992630;28;20061;-82
2022/11/10 14:34:56;;;;;;;11.32;4.70;;;11.20;99.90;;;;;;5006987;28;20033;-79
2022/11/10 14:37:25;;;;;;;12.35;4.78;;;11.20;99.90;;;;;;4995153;28;20038;-81
2022/11/10 14:39:54;;;;;;;15.02;5.25;;;11.20;99.90;;;;;;4992845;28;20034;-79
2022/11/10 14:42:24;;;;;;;12.57;5.00;;;11.20;99.90;;;;;;5015866;28;20094;-79
2022/11/10 14:45:24;;;;;;;14.68;5.30;;;11.20;99.90;;;;;;5011025;28;20098;-78
2022/11/10 14:47:55;;;;;;;14.27;5.10;;;11.20;99.90;;;;;;5010690;28;20038;-81
2022/11/10 14:50:23;;;;;;;13.25;5.20;;;11.20;99.90;;;;;;5004968;28;20281;-81
2022/11/10 14:52:56;;;;;;;12.27;5.13;;;11.20;99.90;;;;;;4991488;28;20102;-81
2022/11/10 14:55:24;;;;;;;14.52;6.28;;;;;;;;;;4997912;28;20027;-80
2022/11/10 14:58:04;;;;;;;16.52;6.63;;;11.10;99.90;;;;;;5003371;28;20105;-81
2022/11/10 16:25:57;;;;;;;22.08;12.35;;;;;;;;;;5043109;28;20046;-86
2022/11/10 16:28:25;;;;;;;22.90;13.30;;;;;;;;;;5048258;28;20032;-87
2022/11/10 16:30:53;;;;;;;22.70;12.82;;;;;;;;;;5053370;28;20034;-88
2022/11/10 16:33:21;;;;;;;21.92;12.30;;;10.90;99.90;;;;;;5053087;28;20034;-87
2022/11/10 16:35:52;;;;;;;22.02;12.75;;;10.90;99.90;;;;;;5047667;28;20022;-87
2022/11/10 16:38:22;;;;;;;;;;;10.90;99.90;;;;;;5054922;28;20030;-86
2022/11/10 16:40:50;;;;;;;25.77;12.67;;;;;;;;;;5067112;28;19912;-90
2022/11/10 16:43:17;;;;;;;19.90;12.02;;;;;;;;;;5058129;28;20276;-87
2022/11/10 16:45:45;;;;;;;21.15;12.40;;;10.80;99.90;;;;;;5061883;28;20041;-88
2022/11/10 16:48:14;;;;;;;22.83;12.75;;;;;;;;;;5039348;28;20053;-87
2022/11/10 17:55:25;;;;;;;18.77;10.55;;;;;;;;;;5054502;28;20033;-87
2022/11/10 17:57:51;;;;;;;18.58;9.63;;;;;;;;;;5049834;28;20030;-87
2022/11/10 18:00:21;;;;;;;21.20;9.50;;;;;;;;;;5066053;28;20034;-92
2022/11/10 18:02:59;;;;;;;16.33;8.77;;;;;;;;;;5049163;28;20085;-87
2022/11/10 18:05:25;;;;;;;17.77;9.23;;;;;;;;;;5054247;28;20009;-90
2022/11/10 18:07:51;;;;;;;18.85;9.70;;;;;;;;;;5045622;28;20055;-90
2022/11/10 18:10:18;;;;;;;19.73;10.00;;;;;;;;;;5050342;28;20037;-90
2022/11/10 18:12:44;;;;;;;15.10;9.10;;;;;;;;;;5043378;28;20048;-85
2022/11/10 18:15:13;;;;;;;16.38;9.18;;;;;;;;;;5046884;28;20052;-87
2022/11/10 18:17:40;;;;;;;14.30;8.67;;;;;;;;;;5041701;28;20096;-88
2022/11/10 18:20:10;;;;;;;21.80;9.25;;;;;;;;;;5054876;28;20041;-89
2022/11/10 18:22:36;;;;;;;18.33;9.38;;;;;;;;;;5033499;28;20044;-86
2022/11/10 18:25:02;;;;;;;17.83;10.02;;;;;;;;;;5054173;28;20034;-88
2022/11/10 18:27:28;;;;;;;19.17;9.95;;;;;;;;;;5054413;28;20051;-89
2022/11/10 18:29:57;;;;;;;15.93;9.07;;;;;;;;;;5047241;28;20032;-87
2022/11/10 18:32:27;;;;;;;21.90;10.43;;;;;;;;;;5050241;28;20402;-87
2022/11/10 18:35:20;;;;;;;;;;;;;;;;;;;;;
2022/11/10 18:37:53;;;;;;;18.13;9.60;;;;;;;;;;5056186;28;20033;-86
2022/11/10 18:40:22;;;;;;;21.83;12.60;;;;;;;;;;5050417;28;20021;-84
2022/11/10 18:42:48;;;;;;;21.10;9.23;;;;;;;;;;5048853;28;20049;-85
2022/11/10 18:45:44;;;;;;;18.80;9.65;;;10.20;99.90;;;;;;5046412;28;20040;-87
2022/11/10 18:48:13;;;;;;;18.45;9.40;;;;;;;;;;5026986;28;20038;-87
2022/11/10 18:50:42;;;;;;;19.50;8.98;;;;;;;;;;5050929;28;20033;-87
2022/11/10 18:53:08;;;;;;;18.58;10.15;;;;;;;;;;5041866;28;20010;-85
2022/11/10 18:55:34;;;;;;;20.35;10.88;;;;;;;;;;5050343;28;20033;-86
2022/11/10 18:58:02;;;;;;;18.58;9.98;;;;;;;;;;5051192;28;20021;-90
2022/11/10 19:00:28;;;;;;;20.35;10.23;;;;;;;;;;5045758;28;20030;-88
2022/11/10 19:02:56;;;;;;;21.15;10.32;;;;;;;;;;5047630;28;20116;-86
2022/11/10 19:05:23;;;;;;;18.77;10.45;;;;;;;;;;5047830;28;20064;-87
2022/11/10 19:07:49;;;;;;;28.42;14.13;;;;;;;;;;5052804;28;20081;-89
2022/11/10 19:10:15;;;;;;;26.17;12.80;;;;;;;;;;5055321;28;20026;-86
2022/11/10 19:12:41;;;;;;;20.67;12.43;;;;;;;;;;5043944;28;20029;-87
2022/11/10 19:15:14;;;;;;;22.95;12.25;;;;;;;;;;5043904;28;20052;-88
2022/11/10 19:17:40;;;;;;;22.48;11.95;;;;;;;;;;5042060;28;20018;-86
2022/11/10 19:20:30;;;;;;;22.95;10.93;;;;;;;;;;5049485;28;20021;-90
2022/11/10 19:22:55;;;;;;;25.88;14.77;;;;;;;;;;5044510;28;20190;-88